createdAt,value
2022-10-23T00:01:14.954Z,16.24
2022-10-23T00:03:44.529Z,16.73
2022-10-23T00:06:12.129Z,16.27
2022-10-23T00:08:42.823Z,16.42
2022-10-23T00:11:11.153Z,16.41
2022-10-23T00:13:39.235Z,15.91
2022-10-23T00:16:07.705Z,15.38
2022-10-23T00:18:39.724Z,15.16
2022-10-23T00:21:11.202Z,15.10
2022-10-23T00:23:44.481Z,15.04
2022-10-23T00:26:18.532Z,14.78
2022-10-23T00:28:46.961Z,14.88
2022-10-23T00:31:14.534Z,14.77
2022-10-23T00:33:42.349Z,15.00
2022-10-23T00:36:22.074Z,14.78
2022-10-23T00:38:49.970Z,15.35
2022-10-23T00:41:18.710Z,15.49
2022-10-23T00:44:01.403Z,15.51
2022-10-23T00:46:29.040Z,15.39
2022-10-23T00:48:58.300Z,15.42
2022-10-23T00:51:41.660Z,15.61
2022-10-23T00:54:25.387Z,15.55
2022-10-23T00:56:53.739Z,15.61
2022-10-23T00:59:23.691Z,15.93
2022-10-23T01:01:51.472Z,15.68
2022-10-23T01:04:22.322Z,15.64
2022-10-23T01:06:53.414Z,15.32
2022-10-23T01:09:22.755Z,15.39
2022-10-23T01:11:51.239Z,15.14
2022-10-23T01:14:23.592Z,15.44
2022-10-23T01:16:55.460Z,15.60
2022-10-23T01:19:23.860Z,15.91
2022-10-23T01:21:56.307Z,15.82
2022-10-23T01:24:37.951Z,15.69
2022-10-23T01:27:16.965Z,15.77
2022-10-23T01:29:45.196Z,15.82
2022-10-23T01:32:13.617Z,15.83
2022-10-23T01:34:43.157Z,15.75
2022-10-23T01:37:11.028Z,15.32
2022-10-23T01:39:38.964Z,15.30
2022-10-23T01:42:10.324Z,15.34
2022-10-23T01:44:41.436Z,15.69
2022-10-23T01:47:10.061Z,15.58
2022-10-23T01:49:39.224Z,15.16
2022-10-23T01:52:08.471Z,15.29
2022-10-23T01:54:37.059Z,14.89
2022-10-23T01:57:08.673Z,14.39
2022-10-23T01:59:38.783Z,13.95
2022-10-23T02:02:08.801Z,14.41
2022-10-23T02:04:40.783Z,14.47
2022-10-23T02:07:13.604Z,13.98
2022-10-23T02:09:41.544Z,13.86
2022-10-23T02:12:10.411Z,13.95
2022-10-23T02:14:39.852Z,14.07
2022-10-23T02:17:12.721Z,14.14
2022-10-23T02:19:45.276Z,13.87
2022-10-23T02:22:13.968Z,13.72
2022-10-23T02:24:44.119Z,13.74
2022-10-23T02:27:13.291Z,13.99
2022-10-23T02:29:41.653Z,14.10
2022-10-23T02:32:09.241Z,13.56
2022-10-23T02:34:42.939Z,13.48
2022-10-23T02:37:10.648Z,13.27
2022-10-23T02:39:41.231Z,13.21
2022-10-23T02:42:10.455Z,13.36
2022-10-23T02:44:40.376Z,13.70
2022-10-23T02:47:14.470Z,13.77
2022-10-23T02:49:45.795Z,13.84
2022-10-23T02:52:14.374Z,13.57
2022-10-23T02:54:48.570Z,13.89
2022-10-23T02:57:20.203Z,13.92
2022-10-23T02:59:49.017Z,13.90
2022-10-23T03:02:18.708Z,13.52
2022-10-23T03:04:48.275Z,13.37
2022-10-23T03:07:18.606Z,13.59
2022-10-23T03:09:46.379Z,13.61
2022-10-23T03:12:14.397Z,13.40
2022-10-23T03:14:42.121Z,13.39
2022-10-23T03:17:10.943Z,13.51
2022-10-23T03:19:38.538Z,13.73
2022-10-23T03:22:08.289Z,13.66
2022-10-23T03:24:35.992Z,13.92
2022-10-23T03:27:04.139Z,14.28
2022-10-23T03:29:34.222Z,14.17
2022-10-23T03:32:01.779Z,14.41
2022-10-23T03:34:30.847Z,14.53
2022-10-23T03:37:03.971Z,14.24
2022-10-23T03:39:32.993Z,14.82
2022-10-23T03:42:01.111Z,14.35
2022-10-23T03:44:35.174Z,14.60
2022-10-23T03:47:02.807Z,14.62
2022-10-23T03:49:30.584Z,15.20
2022-10-23T03:51:58.453Z,14.50
2022-10-23T03:54:29.980Z,14.72
2022-10-23T03:56:59.289Z,14.53
2022-10-23T03:59:31.742Z,14.94
2022-10-23T04:01:59.408Z,14.71
2022-10-23T04:04:29.664Z,15.02
2022-10-23T04:06:59.658Z,14.62
2022-10-23T04:09:29.380Z,14.45
2022-10-23T04:11:58.362Z,14.55
2022-10-23T04:14:27.913Z,13.03
2022-10-23T04:16:55.667Z,14.74
2022-10-23T04:19:23.549Z,14.71
2022-10-23T04:21:53.465Z,14.07
2022-10-23T04:24:21.118Z,14.41
2022-10-23T04:26:48.823Z,14.57
2022-10-23T04:29:19.428Z,14.14
2022-10-23T04:31:48.969Z,14.21
2022-10-23T04:34:16.937Z,14.35
2022-10-23T04:36:46.957Z,14.62
2022-10-23T04:39:15.709Z,14.70
2022-10-23T04:41:45.285Z,14.90
2022-10-23T04:44:14.617Z,14.55
2022-10-23T04:46:47.315Z,14.23
2022-10-23T04:49:16.874Z,14.28
2022-10-23T04:51:44.464Z,14.07
2022-10-23T04:54:12.058Z,14.08
2022-10-23T04:56:39.791Z,13.95
2022-10-23T04:59:07.570Z,13.78
2022-10-23T05:01:35.411Z,14.03
2022-10-23T05:04:03.026Z,13.80
2022-10-23T05:06:32.320Z,13.90
2022-10-23T05:09:00.190Z,14.10
2022-10-23T05:11:33.124Z,14.02
2022-10-23T05:14:03.630Z,14.25
2022-10-23T05:16:35.194Z,14.19
2022-10-23T05:19:03.296Z,12.55
2022-10-23T05:21:37.823Z,13.95
2022-10-23T05:24:08.761Z,13.78
2022-10-23T05:26:36.348Z,13.78
2022-10-23T05:29:06.805Z,13.71
2022-10-23T05:31:34.688Z,13.96
2022-10-23T05:34:04.686Z,13.93
2022-10-23T05:36:37.335Z,14.05
2022-10-23T05:39:05.264Z,14.02
2022-10-23T05:41:32.866Z,14.16
2022-10-23T05:44:00.457Z,14.39
2022-10-23T05:46:28.943Z,14.53
2022-10-23T05:48:56.665Z,14.49
2022-10-23T05:51:24.520Z,14.83
2022-10-23T05:53:56.113Z,15.06
2022-10-23T05:56:23.757Z,15.31
2022-10-23T05:58:52.056Z,15.37
2022-10-23T06:01:19.669Z,14.81
2022-10-23T06:03:47.499Z,15.21
2022-10-23T06:06:15.304Z,15.12
2022-10-23T06:08:56.047Z,14.92
2022-10-23T06:11:27.349Z,14.74
2022-10-23T06:16:33.093Z,15.25
2022-10-23T06:19:01.066Z,15.40
2022-10-23T06:21:28.782Z,15.24
2022-10-23T06:23:56.471Z,15.72
2022-10-23T06:26:26.276Z,15.41
2022-10-23T06:28:53.970Z,15.45
2022-10-23T06:31:26.617Z,14.69
2022-10-23T06:33:55.120Z,14.81
2022-10-23T06:36:27.669Z,15.00
2022-10-23T06:39:01.936Z,15.05
2022-10-23T06:41:34.219Z,14.96
2022-10-23T06:44:04.386Z,14.74
2022-10-23T06:46:35.799Z,14.96
2022-10-23T06:49:04.185Z,14.69
2022-10-23T06:51:34.075Z,15.04
2022-10-23T06:54:02.283Z,15.53
2022-10-23T06:56:31.615Z,14.99
2022-10-23T06:58:59.613Z,14.79
2022-10-23T07:01:28.120Z,14.78
2022-10-23T07:06:55.543Z,14.91
2022-10-23T07:09:23.448Z,14.59
2022-10-23T07:11:52.775Z,14.39
2022-10-23T07:14:23.044Z,14.89
2022-10-23T07:16:51.002Z,14.49
2022-10-23T07:19:21.929Z,14.81
2022-10-23T07:21:49.843Z,14.72
2022-10-23T07:24:17.802Z,13.88
2022-10-23T07:26:45.728Z,14.73
2022-10-23T07:29:15.061Z,14.81
2022-10-23T07:31:42.914Z,15.14
2022-10-23T07:34:11.056Z,14.93
2022-10-23T07:36:40.266Z,15.18
2022-10-23T07:39:08.208Z,15.21
2022-10-23T07:41:37.051Z,14.93
2022-10-23T07:44:04.834Z,15.20
2022-10-23T07:46:40.073Z,14.89
2022-10-23T07:49:09.817Z,15.10
2022-10-23T07:51:39.577Z,15.39
2022-10-23T07:54:08.469Z,15.66
2022-10-23T07:56:36.099Z,16.31
2022-10-23T07:59:07.507Z,16.23
2022-10-23T08:01:36.103Z,16.79
2022-10-23T08:04:08.512Z,16.71
2022-10-23T08:06:36.477Z,16.94
2022-10-23T08:09:06.513Z,17.44
2022-10-23T08:11:38.505Z,17.29
2022-10-23T08:14:07.206Z,17.31
2022-10-23T08:16:35.502Z,17.58
2022-10-23T08:19:05.431Z,16.50
2022-10-23T08:21:35.340Z,16.49
2022-10-23T08:24:05.712Z,16.89
2022-10-23T08:26:36.146Z,16.51
2022-10-23T08:29:03.683Z,16.53
2022-10-23T08:31:33.802Z,16.49
2022-10-23T08:34:01.861Z,16.26
2022-10-23T08:36:29.858Z,16.46
2022-10-23T08:39:00.390Z,16.54
2022-10-23T08:41:31.813Z,16.41
2022-10-23T08:44:04.155Z,16.63
2022-10-23T08:46:33.008Z,16.64
2022-10-23T08:49:04.220Z,17.02
2022-10-23T08:51:37.007Z,17.15
2022-10-23T08:54:07.431Z,17.21
2022-10-23T08:56:39.904Z,17.28
2022-10-23T08:59:09.158Z,17.40
2022-10-23T09:04:23.295Z,17.40
2022-10-23T09:06:54.669Z,17.97
2022-10-23T09:09:38.378Z,18.34
2022-10-23T09:12:08.195Z,18.54
2022-10-23T09:14:57.656Z,18.39
2022-10-23T09:17:26.012Z,18.29
2022-10-23T09:19:55.892Z,18.81
2022-10-23T09:22:23.610Z,19.06
2022-10-23T09:24:53.884Z,19.72
2022-10-23T09:27:23.642Z,19.32
2022-10-23T09:29:53.751Z,19.01
2022-10-23T09:32:22.361Z,18.61
2022-10-23T09:34:57.129Z,19.01
2022-10-23T09:37:27.183Z,19.70
2022-10-23T09:40:29.159Z,19.92
2022-10-23T09:42:58.221Z,19.73
2022-10-23T09:45:30.252Z,20.09
2022-10-23T09:48:10.993Z,20.47
2022-10-23T09:50:43.076Z,20.24
2022-10-23T09:53:12.879Z,20.71
2022-10-23T09:55:42.690Z,20.66
2022-10-23T09:58:19.415Z,21.07
2022-10-23T10:00:49.230Z,20.65
2022-10-23T10:03:20.346Z,20.83
2022-10-23T10:05:57.453Z,20.13
2022-10-23T10:08:29.012Z,20.11
2022-10-23T10:10:59.756Z,20.12
2022-10-23T10:13:35.205Z,20.93
2022-10-23T10:16:07.747Z,21.05
2022-10-23T10:18:36.900Z,20.59
2022-10-23T10:21:08.477Z,20.02
2022-10-23T10:23:39.757Z,20.26
2022-10-23T10:26:15.752Z,20.50
2022-10-23T10:28:50.215Z,21.30
2022-10-23T10:31:19.432Z,21.32
2022-10-23T10:33:52.545Z,21.64
2022-10-23T10:38:57.698Z,21.33
2022-10-23T10:41:50.638Z,20.88
2022-10-23T10:44:24.037Z,21.25
2022-10-23T10:46:53.085Z,21.08
2022-10-23T10:49:25.068Z,21.33
2022-10-23T10:51:54.824Z,20.62
2022-10-23T10:54:28.123Z,20.46
2022-10-23T10:56:55.941Z,20.29
2022-10-23T10:59:26.823Z,20.22
2022-10-23T11:01:57.589Z,20.13
2022-10-23T11:04:28.609Z,19.81
2022-10-23T11:06:56.433Z,20.55
2022-10-23T11:09:30.654Z,20.02
2022-10-23T11:12:04.412Z,20.83
2022-10-23T11:14:34.568Z,21.29
2022-10-23T11:17:03.377Z,20.77
2022-10-23T11:19:31.812Z,21.06
2022-10-23T11:21:59.697Z,20.58
2022-10-23T11:24:49.570Z,21.35
2022-10-23T11:27:26.402Z,21.05
2022-10-23T11:30:14.276Z,21.46
2022-10-23T11:32:52.792Z,20.87
2022-10-23T11:35:33.168Z,20.73
2022-10-23T11:38:16.668Z,21.30
2022-10-23T11:40:45.198Z,21.18
2022-10-23T11:43:15.027Z,21.29
2022-10-23T11:45:42.863Z,21.20
2022-10-23T11:48:25.570Z,21.63
2022-10-23T11:50:59.107Z,21.72
2022-10-23T11:53:39.391Z,21.75
2022-10-23T11:56:25.927Z,21.07
2022-10-23T11:58:56.391Z,21.38
2022-10-23T12:01:32.710Z,21.46
2022-10-23T12:04:03.805Z,21.85
2022-10-23T12:06:34.274Z,21.40
2022-10-23T12:09:02.918Z,22.00
2022-10-23T12:11:44.835Z,22.48
2022-10-23T12:14:27.458Z,22.23
2022-10-23T12:16:55.113Z,22.40
2022-10-23T12:19:24.715Z,22.23
2022-10-23T12:21:56.178Z,21.73
2022-10-23T12:24:41.724Z,21.94
2022-10-23T12:27:14.848Z,22.57
2022-10-23T12:29:59.485Z,22.06
2022-10-23T12:32:33.736Z,22.69
2022-10-23T12:35:09.642Z,23.11
2022-10-23T12:37:59.879Z,23.37
2022-10-23T12:40:30.122Z,24.13
2022-10-23T12:42:59.578Z,23.77
2022-10-23T12:45:27.754Z,23.61
2022-10-23T12:47:58.035Z,23.68
2022-10-23T12:50:28.243Z,24.51
2022-10-23T12:52:59.059Z,25.55
2022-10-23T12:55:30.932Z,25.15
2022-10-23T12:58:01.353Z,24.49
2022-10-23T13:00:29.485Z,25.10
2022-10-23T13:03:03.863Z,25.30
2022-10-23T13:05:34.661Z,25.37
2022-10-23T13:08:02.333Z,25.37
2022-10-23T13:10:33.362Z,25.91
2022-10-23T13:13:01.878Z,25.99
2022-10-23T13:15:43.974Z,25.59
2022-10-23T13:18:13.007Z,25.89
2022-10-23T13:20:59.582Z,25.67
2022-10-23T13:23:31.097Z,26.13
2022-10-23T13:25:59.749Z,24.88
2022-10-23T13:28:27.872Z,24.74
2022-10-23T13:31:01.746Z,24.93
2022-10-23T13:33:32.595Z,24.78
2022-10-23T13:36:03.771Z,24.00
2022-10-23T13:38:35.053Z,24.92
2022-10-23T13:41:03.135Z,25.00
2022-10-23T13:43:39.247Z,24.79
2022-10-23T13:48:36.010Z,24.88
2022-10-23T13:51:10.717Z,24.65
2022-10-23T13:53:38.354Z,24.84
2022-10-23T13:56:06.320Z,24.48
2022-10-23T13:58:34.193Z,24.73
2022-10-23T14:01:05.326Z,24.64
2022-10-23T14:03:45.627Z,24.56
2022-10-23T14:06:14.723Z,24.04
2022-10-23T14:08:42.346Z,23.77
2022-10-23T14:13:44.850Z,23.49
2022-10-23T14:16:13.504Z,23.47
2022-10-23T14:18:41.086Z,23.72
2022-10-23T14:21:12.053Z,24.02
2022-10-23T14:23:41.021Z,24.10
2022-10-23T14:26:09.239Z,23.62
2022-10-23T14:28:36.871Z,23.58
2022-10-23T14:31:05.372Z,23.52
2022-10-23T14:33:37.836Z,23.08
2022-10-23T14:36:07.019Z,23.28
2022-10-23T14:38:34.734Z,23.18
2022-10-23T14:41:08.412Z,23.15
2022-10-23T14:43:38.574Z,23.67
2022-10-23T14:46:10.910Z,23.47
2022-10-23T14:48:38.758Z,23.58
2022-10-23T14:51:07.676Z,23.66
2022-10-23T14:53:37.439Z,23.47
2022-10-23T14:56:14.292Z,23.55
2022-10-23T14:58:43.360Z,23.70
2022-10-23T15:01:11.661Z,23.59
2022-10-23T15:03:42.856Z,22.66
2022-10-23T15:06:17.546Z,23.27
2022-10-23T15:08:46.599Z,23.16
2022-10-23T15:11:19.852Z,23.20
2022-10-23T15:13:47.652Z,23.39
2022-10-23T15:16:16.548Z,23.30
2022-10-23T15:18:45.338Z,23.61
2022-10-23T15:21:16.476Z,23.56
2022-10-23T15:23:47.224Z,23.71
2022-10-23T15:26:24.461Z,23.12
2022-10-23T15:28:54.669Z,23.04
2022-10-23T15:31:26.150Z,23.13
2022-10-23T15:33:53.783Z,23.11
2022-10-23T15:36:21.441Z,22.83
2022-10-23T15:38:51.356Z,22.57
2022-10-23T15:41:22.413Z,22.91
2022-10-23T15:46:27.133Z,22.45
2022-10-23T15:48:54.745Z,22.08
2022-10-23T15:51:24.929Z,22.10
2022-10-23T15:53:52.496Z,21.93
2022-10-23T15:56:21.678Z,21.98
2022-10-23T15:58:49.322Z,22.43
2022-10-23T16:01:19.852Z,22.48
2022-10-23T16:03:50.167Z,22.83
2022-10-23T16:06:18.359Z,23.05
2022-10-23T16:08:46.142Z,22.75
2022-10-23T16:11:19.760Z,22.90
2022-10-23T16:13:50.277Z,22.93
2022-10-23T16:16:19.377Z,21.91
2022-10-23T16:18:47.129Z,22.27
2022-10-23T16:21:17.831Z,21.76
2022-10-23T16:23:49.294Z,22.24
2022-10-23T16:26:17.253Z,22.26
2022-10-23T16:28:47.148Z,21.63
2022-10-23T16:31:20.301Z,21.53
2022-10-23T16:33:49.619Z,21.60
2022-10-23T16:36:20.299Z,21.22
2022-10-23T16:38:51.293Z,21.68
2022-10-23T16:41:21.711Z,21.52
2022-10-23T16:43:49.787Z,21.51
2022-10-23T16:46:24.633Z,21.62
2022-10-23T16:48:52.461Z,21.99
2022-10-23T16:51:21.237Z,21.43
2022-10-23T16:53:49.239Z,21.03
2022-10-23T16:56:17.722Z,20.92
2022-10-23T16:58:49.000Z,21.23
2022-10-23T17:01:20.386Z,20.69
2022-10-23T17:03:50.427Z,20.58
2022-10-23T17:06:21.739Z,20.28
2022-10-23T17:08:49.913Z,21.06
2022-10-23T17:11:18.476Z,21.07
2022-10-23T17:13:46.907Z,20.57
2022-10-23T17:16:17.190Z,20.48
2022-10-23T17:18:50.836Z,20.38
2022-10-23T17:21:18.976Z,20.72
2022-10-23T17:23:47.277Z,20.64
2022-10-23T17:26:17.325Z,21.20
2022-10-23T17:28:45.350Z,20.85
2022-10-23T17:31:16.138Z,20.59
2022-10-23T17:33:45.401Z,21.05
2022-10-23T17:36:22.956Z,20.97
2022-10-23T17:38:50.475Z,21.54
2022-10-23T17:41:18.970Z,21.19
2022-10-23T17:43:46.636Z,21.73
2022-10-23T17:46:14.478Z,21.94
2022-10-23T17:48:43.524Z,22.09
2022-10-23T17:51:12.199Z,21.35
2022-10-23T17:53:42.250Z,21.72
2022-10-23T17:56:10.739Z,22.08
2022-10-23T17:58:38.631Z,21.02
2022-10-23T18:01:09.315Z,21.42
2022-10-23T18:03:37.959Z,21.11
2022-10-23T18:06:08.998Z,21.12
2022-10-23T18:08:37.323Z,21.23
2022-10-23T18:11:06.906Z,21.01
2022-10-23T18:13:35.458Z,20.81
2022-10-23T18:16:05.456Z,20.52
2022-10-23T18:18:33.458Z,20.72
2022-10-23T18:21:04.053Z,20.73
2022-10-23T18:23:31.712Z,20.52
2022-10-23T18:26:00.200Z,20.12
2022-10-23T18:28:29.535Z,20.08
2022-10-23T18:30:57.681Z,19.79
2022-10-23T18:33:26.658Z,19.78
2022-10-23T18:35:56.918Z,19.90
2022-10-23T18:38:27.329Z,20.19
2022-10-23T18:40:55.240Z,20.72
2022-10-23T18:43:41.971Z,21.01
2022-10-23T18:46:14.342Z,20.70
2022-10-23T18:48:42.450Z,21.21
2022-10-23T18:51:18.000Z,21.39
2022-10-23T18:53:49.667Z,21.81
2022-10-23T18:56:22.156Z,21.94
2022-10-23T18:58:50.428Z,22.16
2022-10-23T19:01:19.809Z,22.19
2022-10-23T19:03:47.617Z,22.15
2022-10-23T19:06:16.851Z,21.79
2022-10-23T19:08:45.331Z,22.13
2022-10-23T19:11:14.007Z,22.09
2022-10-23T19:13:41.933Z,21.93
2022-10-23T19:16:10.597Z,22.06
2022-10-23T19:18:42.751Z,21.99
2022-10-23T19:21:10.687Z,21.68
2022-10-23T19:23:39.838Z,21.17
2022-10-23T19:26:09.023Z,20.57
2022-10-23T19:28:37.840Z,20.69
2022-10-23T19:31:10.178Z,20.46
2022-10-23T19:33:39.919Z,20.38
2022-10-23T19:36:11.165Z,20.70
2022-10-23T19:38:41.560Z,20.48
2022-10-23T19:41:09.476Z,20.62
2022-10-23T19:43:37.934Z,20.58
2022-10-23T19:46:09.399Z,20.68
2022-10-23T19:48:44.417Z,20.47
2022-10-23T19:51:13.041Z,20.30
2022-10-23T19:53:41.962Z,20.32
2022-10-23T19:56:13.426Z,20.59
2022-10-23T19:58:43.011Z,20.20
2022-10-23T20:01:21.423Z,20.65
2022-10-23T20:03:55.480Z,20.50
2022-10-23T20:06:29.130Z,20.58
2022-10-23T20:09:01.373Z,20.80
2022-10-23T20:11:29.920Z,20.56
2022-10-23T20:13:58.270Z,20.93
2022-10-23T20:16:30.284Z,21.24
2022-10-23T20:18:59.471Z,20.37
2022-10-23T20:21:30.541Z,21.09
2022-10-23T20:23:58.705Z,20.30
2022-10-23T20:26:26.694Z,20.72
2022-10-23T20:29:14.579Z,20.64
2022-10-23T20:31:43.429Z,19.86
2022-10-23T20:34:13.197Z,20.54
2022-10-23T20:36:46.409Z,19.97
2022-10-23T20:39:15.818Z,19.74
2022-10-23T20:41:47.208Z,19.46
2022-10-23T20:44:18.451Z,20.12
2022-10-23T20:46:47.034Z,20.04
2022-10-23T20:49:18.942Z,19.52
2022-10-23T20:51:54.116Z,19.66
2022-10-23T20:54:23.010Z,19.96
2022-10-23T20:56:53.353Z,19.60
2022-10-23T20:59:24.060Z,19.30
2022-10-23T21:01:53.309Z,19.59
2022-10-23T21:04:26.627Z,19.78
2022-10-23T21:07:11.285Z,19.37
2022-10-23T21:09:41.695Z,19.53
2022-10-23T21:12:09.465Z,19.16
2022-10-23T21:14:37.295Z,19.26
2022-10-23T21:17:05.802Z,19.56
2022-10-23T21:19:39.467Z,19.30
2022-10-23T21:22:07.358Z,19.27
2022-10-23T21:24:38.073Z,19.32
2022-10-23T21:27:05.842Z,19.34
2022-10-23T21:29:34.011Z,19.14
2022-10-23T21:32:02.239Z,19.12
2022-10-23T21:34:34.298Z,19.25
2022-10-23T21:37:12.855Z,19.15
2022-10-23T21:39:41.856Z,19.14
2022-10-23T21:42:09.830Z,19.50
2022-10-23T21:44:37.482Z,19.16
2022-10-23T21:47:05.250Z,19.08
2022-10-23T21:49:40.241Z,19.16
2022-10-23T21:52:07.942Z,19.44
2022-10-23T21:54:35.577Z,19.21
2022-10-23T21:57:06.013Z,19.53
2022-10-23T21:59:35.978Z,19.25
2022-10-23T22:02:04.030Z,19.23
2022-10-23T22:04:31.735Z,19.18
2022-10-23T22:07:02.718Z,19.32
2022-10-23T22:09:30.748Z,19.49
2022-10-23T22:11:59.842Z,19.43
2022-10-23T22:14:27.747Z,19.13
2022-10-23T22:16:58.162Z,19.12
2022-10-23T22:19:33.291Z,19.12
2022-10-23T22:22:07.701Z,19.30
2022-10-23T22:24:36.782Z,19.18
2022-10-23T22:27:05.406Z,19.30
2022-10-23T22:29:40.434Z,19.24
2022-10-23T22:32:08.058Z,19.27
2022-10-23T22:34:53.489Z,17.91
2022-10-23T22:37:26.466Z,19.32
2022-10-23T22:39:54.407Z,18.92
2022-10-23T22:42:23.059Z,19.37
2022-10-23T22:44:50.686Z,19.27
2022-10-23T22:47:19.230Z,18.91
2022-10-23T22:49:46.788Z,19.18
2022-10-23T22:52:17.690Z,17.91
2022-10-23T22:54:50.099Z,19.00
2022-10-23T22:57:20.084Z,19.17
2022-10-23T22:59:51.326Z,18.96
2022-10-23T23:02:19.046Z,19.15
2022-10-23T23:04:51.709Z,18.94
2022-10-23T23:07:19.312Z,19.10
2022-10-23T23:09:48.807Z,19.04
2022-10-23T23:12:16.602Z,18.91
2022-10-23T23:14:45.030Z,18.95
2022-10-23T23:17:13.221Z,19.18
2022-10-23T23:19:42.026Z,19.07
2022-10-23T23:22:09.830Z,19.03
2022-10-23T23:24:41.342Z,18.87
2022-10-23T23:27:13.103Z,18.87
2022-10-23T23:29:40.706Z,18.87
2022-10-23T23:32:08.311Z,18.67
2022-10-23T23:34:35.911Z,19.16
2022-10-23T23:37:06.098Z,19.07
2022-10-23T23:39:33.850Z,19.04
2022-10-23T23:42:03.612Z,19.45
2022-10-23T23:44:50.313Z,19.16
2022-10-23T23:47:29.703Z,18.98
2022-10-23T23:49:57.797Z,18.47
2022-10-23T23:52:29.862Z,18.62
2022-10-23T23:54:57.904Z,18.75
2022-10-23T23:57:29.029Z,19.28
